createdAt,value
2019-05-18T00:01:03.337Z,32.83
2019-05-18T00:03:32.862Z,30.57
2019-05-18T00:06:02.265Z,31.42
2019-05-18T00:08:31.606Z,30.40
2019-05-18T00:11:01.214Z,29.37
2019-05-18T00:13:30.779Z,30.95
2019-05-18T00:16:00.323Z,32.25
2019-05-18T00:18:29.615Z,35.23
2019-05-18T00:20:59.034Z,31.10
2019-05-18T00:23:28.352Z,33.58
2019-05-18T00:25:57.809Z,33.18
2019-05-18T00:28:27.256Z,33.40
2019-05-18T00:30:56.630Z,32.45
2019-05-18T00:33:25.871Z,33.92
2019-05-18T00:35:55.348Z,30.92
2019-05-18T00:38:24.790Z,33.85
2019-05-18T00:40:54.165Z,34.27
2019-05-18T00:43:23.624Z,33.60
2019-05-18T00:45:53.006Z,33.60
2019-05-18T00:48:22.478Z,45.88
2019-05-18T00:50:51.906Z,37.23
2019-05-18T00:53:21.445Z,35.10
2019-05-18T00:55:50.970Z,41.08
2019-05-18T00:58:20.383Z,38.45
2019-05-18T01:00:49.802Z,36.55
2019-05-18T01:03:19.193Z,37.10
2019-05-18T01:05:48.602Z,38.45
2019-05-18T01:08:17.895Z,43.50
2019-05-18T01:10:47.280Z,37.13
2019-05-18T01:13:16.769Z,40.38
2019-05-18T01:15:46.086Z,38.90
2019-05-18T01:18:15.356Z,38.67
2019-05-18T01:20:45.006Z,43.17
2019-05-18T01:23:14.325Z,40.25
2019-05-18T01:25:43.651Z,41.50
2019-05-18T01:28:13.014Z,36.55
2019-05-18T01:30:42.345Z,43.20
2019-05-18T01:33:11.759Z,40.08
2019-05-18T01:35:52.091Z,42.85
2019-05-18T01:38:21.400Z,40.45
2019-05-18T01:40:50.746Z,41.75
2019-05-18T01:43:20.221Z,42.00
2019-05-18T01:45:49.483Z,45.03
2019-05-18T01:48:18.869Z,42.05
2019-05-18T01:50:48.184Z,43.30
2019-05-18T01:53:17.516Z,43.58
2019-05-18T01:55:46.962Z,41.60
2019-05-18T01:58:16.333Z,50.80
2019-05-18T02:00:45.736Z,44.98
2019-05-18T02:03:15.070Z,48.60
2019-05-18T02:05:44.510Z,44.25
2019-05-18T02:08:13.845Z,49.33
2019-05-18T02:10:43.153Z,45.75
2019-05-18T02:13:12.529Z,49.27
2019-05-18T02:15:41.964Z,47.78
2019-05-18T02:18:11.401Z,47.48
2019-05-18T02:20:40.730Z,51.48
2019-05-18T02:23:10.040Z,46.85
2019-05-18T02:25:39.398Z,47.88
2019-05-18T02:28:08.753Z,51.02
2019-05-18T02:30:38.195Z,52.62
2019-05-18T02:33:07.527Z,49.00
2019-05-18T02:35:36.945Z,53.78
2019-05-18T02:38:19.038Z,48.83
2019-05-18T02:40:49.127Z,51.30
2019-05-18T02:43:18.576Z,49.50
2019-05-18T02:45:47.917Z,58.73
2019-05-18T02:48:17.123Z,49.85
2019-05-18T02:50:46.597Z,54.77
2019-05-18T02:53:16.098Z,53.50
2019-05-18T02:55:45.567Z,54.45
2019-05-18T02:58:14.896Z,54.73
2019-05-18T03:00:44.401Z,50.95
2019-05-18T03:03:13.838Z,50.80
2019-05-18T03:05:44.547Z,51.23
2019-05-18T03:08:13.946Z,54.53
2019-05-18T03:10:43.330Z,55.60
2019-05-18T03:13:12.780Z,53.25
2019-05-18T03:15:42.161Z,51.95
2019-05-18T03:18:11.562Z,61.25
2019-05-18T03:20:40.855Z,60.73
2019-05-18T03:23:10.278Z,63.90
2019-05-18T03:25:39.663Z,59.50
2019-05-18T03:28:09.112Z,66.30
2019-05-18T03:30:38.601Z,62.70
2019-05-18T03:33:08.063Z,66.90
2019-05-18T03:35:37.366Z,58.10
2019-05-18T03:38:06.707Z,60.25
2019-05-18T03:40:36.272Z,51.73
2019-05-18T03:43:05.565Z,56.15
2019-05-18T03:45:34.986Z,48.87
2019-05-18T03:48:04.377Z,52.65
2019-05-18T03:50:33.927Z,47.00
2019-05-18T03:53:03.213Z,47.30
2019-05-18T03:55:33.351Z,45.30
2019-05-18T03:58:02.814Z,45.28
2019-05-18T04:00:32.216Z,43.33
2019-05-18T04:03:01.528Z,41.13
2019-05-18T04:05:31.167Z,44.98
2019-05-18T04:08:00.582Z,48.02
2019-05-18T04:10:29.867Z,42.33
2019-05-18T04:12:59.242Z,43.13
2019-05-18T04:15:28.607Z,41.27
2019-05-18T04:17:57.802Z,43.30
2019-05-18T04:20:27.232Z,40.85
2019-05-18T04:22:57.044Z,42.03
2019-05-18T04:25:26.427Z,42.67
2019-05-18T04:27:55.800Z,42.73
2019-05-18T04:30:25.240Z,43.80
2019-05-18T04:32:54.593Z,42.90
2019-05-18T04:35:23.840Z,40.67
2019-05-18T04:37:53.133Z,42.37
2019-05-18T04:40:22.671Z,42.63
2019-05-18T04:42:51.981Z,43.40
2019-05-18T04:45:21.456Z,43.33
2019-05-18T04:47:50.721Z,42.67
2019-05-18T04:50:20.072Z,45.47
2019-05-18T04:52:49.454Z,40.73
2019-05-18T04:55:18.881Z,43.63
2019-05-18T04:57:48.178Z,41.93
2019-05-18T05:00:17.677Z,41.90
2019-05-18T05:02:47.053Z,45.87
2019-05-18T05:05:16.482Z,46.30
2019-05-18T05:07:45.853Z,45.80
2019-05-18T05:10:15.304Z,44.67
2019-05-18T05:12:44.598Z,44.63
2019-05-18T05:15:14.136Z,43.80
2019-05-18T05:17:43.674Z,42.97
2019-05-18T05:20:19.920Z,41.13
2019-05-18T05:22:45.632Z,42.90
2019-05-18T05:25:16.278Z,40.87
2019-05-18T05:27:45.689Z,39.33
2019-05-18T05:30:15.113Z,41.37
2019-05-18T05:32:44.532Z,41.70
2019-05-18T05:35:13.963Z,43.17
2019-05-18T05:37:43.474Z,41.67
2019-05-18T05:40:12.990Z,39.27
2019-05-18T05:42:42.518Z,40.63
2019-05-18T05:45:12.228Z,40.83
2019-05-18T05:47:41.599Z,39.00
2019-05-18T05:50:11.193Z,38.17
2019-05-18T05:52:40.648Z,41.65
2019-05-18T05:55:10.418Z,38.97
2019-05-18T05:57:39.902Z,37.63
2019-05-18T06:00:09.982Z,36.45
2019-05-18T06:02:39.267Z,32.95
2019-05-18T06:05:08.988Z,44.80
2019-05-18T06:07:38.419Z,36.50
2019-05-18T06:10:08.846Z,32.00
2019-05-18T06:12:38.292Z,35.28
2019-05-18T06:15:09.788Z,36.97
2019-05-18T06:17:39.176Z,30.72
2019-05-18T06:20:08.844Z,27.73
2019-05-18T06:22:38.292Z,28.57
2019-05-18T06:25:08.402Z,28.57
2019-05-18T06:27:37.956Z,25.63
2019-05-18T06:30:08.015Z,25.20
2019-05-18T06:32:37.459Z,23.43
2019-05-18T06:35:07.000Z,24.17
2019-05-18T06:37:36.403Z,23.20
2019-05-18T06:40:06.693Z,20.70
2019-05-18T06:42:36.224Z,22.37
2019-05-18T06:45:06.017Z,19.07
2019-05-18T06:47:38.389Z,17.83
2019-05-18T06:50:11.716Z,21.10
2019-05-18T06:52:39.882Z,19.47
2019-05-18T06:55:09.237Z,20.20
2019-05-18T06:57:39.303Z,19.03
2019-05-18T07:00:11.190Z,17.03
2019-05-18T07:02:40.736Z,15.03
2019-05-18T07:05:10.330Z,14.27
2019-05-18T07:07:39.773Z,16.47
2019-05-18T07:10:09.361Z,14.80
2019-05-18T07:12:38.870Z,15.90
2019-05-18T07:15:08.579Z,15.90
2019-05-18T07:17:37.990Z,14.63
2019-05-18T07:20:08.098Z,14.70
2019-05-18T07:22:37.378Z,14.83
2019-05-18T07:25:06.772Z,15.30
2019-05-18T07:27:36.503Z,15.97
2019-05-18T07:30:06.600Z,15.47
2019-05-18T07:32:36.012Z,16.03
2019-05-18T07:35:05.501Z,13.80
2019-05-18T07:37:35.137Z,17.90
2019-05-18T07:40:05.606Z,15.47
2019-05-18T07:42:35.137Z,16.87
2019-05-18T07:45:04.851Z,16.60
2019-05-18T07:47:34.178Z,17.17
2019-05-18T07:50:03.658Z,14.83
2019-05-18T07:52:33.272Z,15.10
2019-05-18T07:55:02.726Z,14.33
2019-05-18T07:57:32.495Z,16.20
2019-05-18T08:00:01.879Z,14.70
2019-05-18T08:02:31.930Z,13.93
2019-05-18T08:05:01.423Z,12.97
2019-05-18T08:07:30.891Z,13.07
2019-05-18T08:10:00.193Z,13.40
2019-05-18T08:12:29.804Z,14.73
2019-05-18T08:14:59.290Z,11.40
2019-05-18T08:17:28.852Z,12.93
2019-05-18T08:19:58.285Z,11.63
2019-05-18T08:22:27.755Z,14.13
2019-05-18T08:24:57.284Z,13.43
2019-05-18T08:27:26.899Z,11.90
2019-05-18T08:29:56.841Z,12.40
2019-05-18T08:32:26.202Z,12.90
2019-05-18T08:34:55.834Z,11.83
2019-05-18T08:37:25.496Z,11.90
2019-05-18T08:39:54.884Z,11.43
2019-05-18T08:42:24.924Z,11.00
2019-05-18T08:44:55.245Z,12.50
2019-05-18T08:47:25.964Z,12.73
2019-05-18T08:49:54.960Z,11.63
2019-05-18T08:52:24.878Z,12.87
2019-05-18T08:54:53.956Z,11.90
2019-05-18T08:57:23.269Z,13.97
2019-05-18T08:59:52.419Z,13.40
2019-05-18T09:02:32.037Z,10.87
2019-05-18T09:05:04.638Z,13.00
2019-05-18T09:07:31.836Z,11.83
2019-05-18T09:10:00.940Z,12.50
2019-05-18T09:12:30.070Z,12.87
2019-05-18T09:14:59.130Z,12.97
2019-05-18T09:17:28.243Z,14.10
2019-05-18T09:19:58.511Z,13.53
2019-05-18T09:22:27.692Z,13.73
2019-05-18T09:24:56.922Z,13.33
2019-05-18T09:27:26.104Z,13.33
2019-05-18T09:29:55.392Z,12.43
2019-05-18T09:32:24.555Z,13.63
2019-05-18T09:34:54.007Z,13.53
2019-05-18T09:37:23.176Z,10.47
2019-05-18T09:39:52.690Z,9.97
2019-05-18T09:42:21.764Z,9.00
2019-05-18T09:44:50.921Z,10.83
2019-05-18T09:47:20.205Z,11.40
2019-05-18T09:49:49.812Z,11.67
2019-05-18T09:52:18.821Z,11.20
2019-05-18T09:54:47.827Z,10.33
2019-05-18T09:57:16.950Z,10.47
2019-05-18T09:59:46.026Z,10.20
2019-05-18T10:02:15.240Z,11.83
2019-05-18T10:04:44.538Z,11.00
2019-05-18T10:07:13.703Z,10.67
2019-05-18T10:09:42.836Z,10.53
2019-05-18T10:12:12.047Z,10.27
2019-05-18T10:14:41.286Z,9.63
2019-05-18T10:17:10.396Z,10.37
2019-05-18T10:19:39.476Z,11.07
2019-05-18T10:22:08.737Z,10.50
2019-05-18T10:24:38.052Z,11.00
2019-05-18T10:27:12.037Z,10.53
2019-05-18T10:29:41.158Z,9.77
2019-05-18T10:32:10.304Z,10.20
2019-05-18T10:34:39.720Z,10.70
2019-05-18T10:37:08.815Z,10.53
2019-05-18T10:39:38.804Z,9.83
2019-05-18T10:42:08.157Z,9.80
2019-05-18T10:44:37.353Z,9.30
2019-05-18T10:47:06.472Z,14.23
2019-05-18T10:49:35.628Z,13.70
2019-05-18T10:52:04.767Z,12.10
2019-05-18T10:54:33.981Z,12.70
2019-05-18T10:57:03.219Z,12.60
2019-05-18T10:59:32.427Z,13.23
2019-05-18T11:02:01.606Z,11.93
2019-05-18T11:04:30.891Z,11.73
2019-05-18T11:07:00.147Z,12.83
2019-05-18T11:09:29.308Z,13.00
2019-05-18T11:11:58.570Z,14.80
2019-05-18T11:14:27.639Z,14.53
2019-05-18T11:16:56.845Z,13.10
2019-05-18T11:19:25.950Z,11.90
2019-05-18T11:21:55.010Z,11.63
2019-05-18T11:24:24.097Z,12.70
2019-05-18T11:26:53.178Z,15.70
2019-05-18T11:29:23.860Z,13.27
2019-05-18T11:31:53.501Z,13.27
2019-05-18T11:34:22.550Z,14.13
2019-05-18T11:36:51.700Z,15.30
2019-05-18T11:39:20.783Z,11.93
2019-05-18T11:41:49.935Z,11.10
2019-05-18T11:44:19.167Z,11.40
2019-05-18T11:46:48.340Z,11.43
2019-05-18T11:49:17.493Z,10.70
2019-05-18T11:51:46.627Z,10.43
2019-05-18T11:54:15.799Z,11.10
2019-05-18T11:56:45.041Z,11.73
2019-05-18T11:59:15.768Z,10.30
2019-05-18T12:01:48.320Z,9.90
2019-05-18T12:04:17.602Z,20.90
2019-05-18T12:06:47.158Z,11.33
2019-05-18T12:09:16.586Z,9.30
2019-05-18T12:11:45.963Z,9.33
2019-05-18T12:14:15.325Z,8.77
2019-05-18T12:16:44.694Z,8.23
2019-05-18T12:19:14.193Z,7.27
2019-05-18T12:21:43.708Z,6.97
2019-05-18T12:24:15.691Z,7.63
2019-05-18T12:26:44.294Z,6.90
2019-05-18T12:29:13.739Z,8.17
2019-05-18T12:31:43.141Z,7.13
2019-05-18T12:34:12.645Z,7.60
2019-05-18T12:36:42.066Z,7.30
2019-05-18T12:39:11.513Z,7.70
2019-05-18T12:41:40.882Z,6.60
2019-05-18T12:44:10.353Z,7.77
2019-05-18T12:46:40.056Z,6.20
2019-05-18T12:49:09.612Z,6.97
2019-05-18T12:51:38.937Z,7.10
2019-05-18T12:54:08.329Z,6.87
2019-05-18T12:56:37.750Z,7.13
2019-05-18T12:59:07.141Z,7.53
2019-05-18T13:01:45.518Z,7.40
2019-05-18T13:04:12.801Z,7.47
2019-05-18T13:06:42.261Z,7.53
2019-05-18T13:09:11.593Z,6.73
2019-05-18T13:11:40.999Z,6.97
2019-05-18T13:14:10.422Z,8.10
2019-05-18T13:16:39.804Z,7.20
2019-05-18T13:19:09.115Z,6.70
2019-05-18T13:21:38.649Z,8.30
2019-05-18T13:24:08.074Z,5.90
2019-05-18T13:26:37.517Z,5.40
2019-05-18T13:29:06.930Z,4.43
2019-05-18T13:31:36.451Z,5.10
2019-05-18T13:34:05.751Z,5.43
2019-05-18T13:36:35.453Z,6.33
2019-05-18T13:39:06.107Z,5.00
2019-05-18T13:41:35.496Z,5.33
2019-05-18T13:44:05.054Z,5.83
2019-05-18T13:46:34.364Z,5.60
2019-05-18T13:49:03.848Z,5.20
2019-05-18T13:51:33.218Z,4.67
2019-05-18T13:54:02.507Z,5.43
2019-05-18T13:56:31.898Z,3.70
2019-05-18T13:59:01.160Z,4.80
2019-05-18T14:01:30.467Z,4.50
2019-05-18T14:03:59.888Z,4.43
2019-05-18T14:06:29.280Z,4.50
2019-05-18T14:08:58.676Z,4.47
2019-05-18T14:11:28.055Z,4.00
2019-05-18T14:13:57.541Z,5.23
2019-05-18T14:16:27.073Z,5.57
2019-05-18T14:18:56.427Z,5.10
2019-05-18T14:21:25.888Z,3.77
2019-05-18T14:23:55.100Z,4.40
2019-05-18T14:26:24.598Z,4.67
2019-05-18T14:28:53.946Z,5.17
2019-05-18T14:31:23.328Z,5.40
2019-05-18T14:33:52.742Z,3.87
2019-05-18T14:36:22.117Z,3.77
2019-05-18T14:38:51.469Z,8.43
2019-05-18T14:41:20.845Z,4.50
2019-05-18T14:43:50.262Z,3.87
2019-05-18T14:46:20.150Z,7.73
2019-05-18T14:48:49.599Z,3.33
2019-05-18T14:51:19.084Z,4.10
2019-05-18T14:53:48.466Z,3.73
2019-05-18T14:56:17.859Z,4.17
2019-05-18T14:58:47.141Z,3.90
2019-05-18T15:01:16.575Z,4.07
2019-05-18T15:03:45.980Z,6.90
2019-05-18T15:06:15.176Z,4.07
2019-05-18T15:08:44.634Z,4.13
2019-05-18T15:11:13.947Z,3.80
2019-05-18T15:13:43.398Z,4.90
2019-05-18T15:16:12.817Z,3.60
2019-05-18T15:18:42.205Z,4.40
2019-05-18T15:21:11.551Z,4.40
2019-05-18T15:23:40.894Z,8.80
2019-05-18T15:26:10.427Z,4.47
2019-05-18T15:28:39.767Z,4.13
2019-05-18T15:31:09.115Z,4.47
2019-05-18T15:33:38.534Z,4.40
2019-05-18T15:36:07.960Z,3.83
2019-05-18T15:38:37.451Z,5.23
2019-05-18T15:41:06.952Z,4.90
2019-05-18T15:43:36.363Z,4.00
2019-05-18T15:46:05.932Z,6.63
2019-05-18T15:48:35.353Z,4.50
2019-05-18T15:51:05.200Z,3.77
2019-05-18T15:53:34.327Z,4.13
2019-05-18T15:56:06.140Z,5.60
2019-05-18T15:58:34.272Z,4.20
2019-05-18T16:01:03.479Z,4.80
2019-05-18T16:03:32.569Z,4.07
2019-05-18T16:06:01.840Z,4.80
2019-05-18T16:08:30.998Z,3.53
2019-05-18T16:11:00.209Z,5.63
2019-05-18T16:13:29.303Z,4.07
2019-05-18T16:15:58.497Z,4.50
2019-05-18T16:18:27.583Z,3.83
2019-05-18T16:20:56.832Z,4.23
2019-05-18T16:23:26.042Z,3.83
2019-05-18T16:25:55.133Z,6.50
2019-05-18T16:28:24.324Z,5.27
2019-05-18T16:30:53.560Z,4.80
2019-05-18T16:33:22.644Z,5.50
2019-05-18T16:35:51.775Z,4.67
2019-05-18T16:38:21.107Z,5.20
2019-05-18T16:40:50.509Z,4.13
2019-05-18T16:43:19.679Z,5.40
2019-05-18T16:45:48.766Z,5.50
2019-05-18T16:48:17.878Z,4.83
2019-05-18T16:50:46.961Z,4.87
2019-05-18T16:53:16.200Z,4.50
2019-05-18T16:55:45.279Z,4.57
2019-05-18T16:58:14.676Z,3.73
2019-05-18T17:00:43.946Z,5.77
2019-05-18T17:03:13.216Z,4.50
2019-05-18T17:05:42.186Z,14.83
2019-05-18T17:08:11.283Z,4.50
2019-05-18T17:10:40.435Z,3.70
2019-05-18T17:13:09.644Z,3.80
2019-05-18T17:15:39.242Z,5.47
2019-05-18T17:18:08.522Z,3.90
2019-05-18T17:20:37.898Z,3.60
2019-05-18T17:23:07.056Z,8.63
2019-05-18T17:25:36.149Z,5.33
2019-05-18T17:28:05.403Z,3.77
2019-05-18T17:30:34.660Z,3.70
2019-05-18T17:33:03.832Z,5.30
2019-05-18T17:35:33.124Z,5.17
2019-05-18T17:38:02.144Z,4.67
2019-05-18T17:40:31.252Z,4.53
2019-05-18T17:43:00.425Z,4.43
2019-05-18T17:45:29.641Z,5.70
2019-05-18T17:47:58.727Z,4.70
2019-05-18T17:50:28.270Z,4.67
2019-05-18T17:52:57.341Z,5.23
2019-05-18T17:55:26.665Z,4.70
2019-05-18T17:57:55.847Z,4.73
2019-05-18T18:00:24.948Z,4.00
2019-05-18T18:02:54.133Z,4.27
2019-05-18T18:05:23.218Z,5.43
2019-05-18T18:07:55.530Z,4.90
2019-05-18T18:10:23.887Z,4.23
2019-05-18T18:12:53.017Z,5.87
2019-05-18T18:15:22.291Z,6.60
2019-05-18T18:17:51.560Z,5.00
2019-05-18T18:20:20.926Z,5.70
2019-05-18T18:22:49.972Z,5.40
2019-05-18T18:25:19.176Z,8.97
2019-05-18T18:27:48.744Z,5.07
2019-05-18T18:30:18.417Z,5.40
2019-05-18T18:32:48.072Z,4.97
2019-05-18T18:35:18.212Z,5.63
2019-05-18T18:37:47.360Z,13.80
2019-05-18T18:40:17.141Z,6.20
2019-05-18T18:42:46.265Z,6.00
2019-05-18T18:45:15.771Z,5.50
2019-05-18T18:47:44.906Z,6.90
2019-05-18T18:50:14.403Z,7.13
2019-05-18T18:52:43.715Z,6.50
2019-05-18T18:55:12.893Z,7.00
2019-05-18T18:57:45.488Z,6.90
2019-05-18T19:00:16.448Z,10.90
2019-05-18T19:02:45.621Z,8.60
2019-05-18T19:05:14.830Z,8.90
2019-05-18T19:07:44.681Z,9.90
2019-05-18T19:10:14.642Z,14.00
2019-05-18T19:12:43.901Z,13.50
2019-05-18T19:15:13.956Z,9.17
2019-05-18T19:17:43.270Z,14.47
2019-05-18T19:20:13.860Z,9.20
2019-05-18T19:22:43.295Z,14.63
2019-05-18T19:25:13.736Z,16.17
2019-05-18T19:27:54.109Z,10.20
2019-05-18T19:30:13.744Z,9.00
2019-05-18T19:32:42.928Z,10.10
2019-05-18T19:35:15.242Z,14.13
2019-05-18T19:37:44.509Z,19.87
2019-05-18T19:40:13.814Z,18.17
2019-05-18T19:42:42.955Z,23.87
2019-05-18T19:45:12.497Z,17.97
2019-05-18T19:47:41.730Z,30.03
2019-05-18T19:50:11.680Z,23.67
2019-05-18T19:52:41.085Z,23.67
2019-05-18T19:55:10.368Z,20.63
2019-05-18T19:57:39.486Z,23.80
2019-05-18T20:00:09.602Z,24.27
2019-05-18T20:02:38.769Z,21.90
2019-05-18T20:05:09.298Z,21.17
2019-05-18T20:07:38.686Z,17.73
2019-05-18T20:10:08.757Z,20.43
2019-05-18T20:12:38.028Z,21.03
2019-05-18T20:15:09.635Z,20.07
2019-05-18T20:17:39.217Z,27.10
2019-05-18T20:20:09.689Z,20.50
2019-05-18T20:22:39.112Z,19.47
2019-05-18T20:25:08.749Z,22.93
2019-05-18T20:27:37.944Z,21.23
2019-05-18T20:30:08.237Z,21.43
2019-05-18T20:32:37.426Z,20.43
2019-05-18T20:35:09.845Z,23.27
2019-05-18T20:37:39.038Z,22.23
2019-05-18T20:40:08.415Z,20.47
2019-05-18T20:42:37.940Z,21.33
2019-05-18T20:45:08.169Z,22.20
2019-05-18T20:47:37.478Z,22.60
2019-05-18T20:50:07.110Z,23.43
2019-05-18T20:52:36.457Z,22.23
2019-05-18T20:55:06.384Z,22.20
2019-05-18T20:57:35.618Z,23.57
2019-05-18T21:00:04.966Z,27.83
2019-05-18T21:02:34.077Z,25.37
2019-05-18T21:05:03.220Z,24.23
2019-05-18T21:07:32.536Z,27.80
2019-05-18T21:10:02.123Z,26.03
2019-05-18T21:12:31.166Z,25.07
2019-05-18T21:15:00.462Z,26.93
2019-05-18T21:17:29.531Z,28.97
2019-05-18T21:19:58.666Z,28.47
2019-05-18T21:22:28.249Z,28.00
2019-05-18T21:24:57.313Z,35.57
2019-05-18T21:27:26.513Z,28.43
2019-05-18T21:29:55.726Z,27.40
2019-05-18T21:32:25.280Z,28.60
2019-05-18T21:34:54.404Z,28.37
2019-05-18T21:37:23.536Z,27.03
2019-05-18T21:39:52.733Z,33.03
2019-05-18T21:42:22.304Z,33.83
2019-05-18T21:44:51.585Z,29.30
2019-05-18T21:47:20.800Z,44.20
2019-05-18T21:49:49.846Z,39.20
2019-05-18T21:52:19.084Z,36.17
2019-05-18T21:54:48.446Z,40.00
2019-05-18T21:57:17.908Z,35.13
2019-05-18T21:59:49.108Z,32.33
2019-05-18T22:02:18.550Z,34.47
2019-05-18T22:04:48.889Z,30.07
2019-05-18T22:07:18.381Z,30.47
2019-05-18T22:09:47.489Z,28.93
2019-05-18T22:12:16.719Z,31.97
2019-05-18T22:14:45.784Z,30.40
2019-05-18T22:17:14.851Z,31.50
2019-05-18T22:19:43.885Z,31.42
2019-05-18T22:22:13.016Z,30.50
2019-05-18T22:24:42.128Z,32.07
2019-05-18T22:27:11.249Z,32.07
2019-05-18T22:29:40.230Z,31.68
2019-05-18T22:32:09.447Z,31.93
2019-05-18T22:34:38.523Z,30.90
2019-05-18T22:37:07.578Z,31.37
2019-05-18T22:39:37.853Z,30.10
2019-05-18T22:42:07.357Z,31.15
2019-05-18T22:44:36.587Z,29.42
2019-05-18T22:47:05.729Z,30.88
2019-05-18T22:49:34.857Z,30.48
2019-05-18T22:52:04.159Z,30.52
2019-05-18T22:54:33.546Z,28.85
2019-05-18T22:57:02.836Z,38.85
2019-05-18T22:59:32.069Z,28.77
2019-05-18T23:02:01.256Z,28.95
2019-05-18T23:04:30.589Z,27.20
2019-05-18T23:06:59.583Z,28.10
2019-05-18T23:09:29.576Z,29.23
2019-05-18T23:11:58.833Z,28.73
2019-05-18T23:14:27.973Z,29.35
2019-05-18T23:17:00.276Z,30.25
2019-05-18T23:19:29.513Z,28.10
2019-05-18T23:21:58.636Z,29.10
2019-05-18T23:24:27.807Z,30.12
2019-05-18T23:26:57.430Z,32.50
2019-05-18T23:29:26.477Z,29.82
2019-05-18T23:31:55.659Z,29.37
2019-05-18T23:34:24.908Z,30.57
2019-05-18T23:36:54.072Z,29.27
2019-05-18T23:39:23.485Z,32.33
2019-05-18T23:41:52.606Z,31.70
2019-05-18T23:44:21.718Z,31.97
2019-05-18T23:46:50.935Z,28.38
2019-05-18T23:49:19.954Z,29.67
2019-05-18T23:51:49.220Z,28.12
2019-05-18T23:54:18.309Z,28.30
2019-05-18T23:56:47.506Z,27.80
2019-05-18T23:59:16.775Z,28.02
